sensor_id;sensor_type;location;lat;lon;timestamp;temperature;humidity
843;DHT22;407;48.884;9.126;2023-06-04T00:01:31;16.80;99.90
843;DHT22;407;48.884;9.126;2023-06-04T00:03:59;16.80;99.90
843;DHT22;407;48.884;9.126;2023-06-04T00:06:25;16.70;99.90
843;DHT22;407;48.884;9.126;2023-06-04T00:08:50;16.70;99.90
843;DHT22;407;48.884;9.126;2023-06-04T00:11:16;16.50;99.90
843;DHT22;407;48.884;9.126;2023-06-04T00:13:41;16.50;99.90
843;DHT22;407;48.884;9.126;2023-06-04T00:16:07;16.50;99.90
843;DHT22;407;48.884;9.126;2023-06-04T00:18:32;16.50;99.90
843;DHT22;407;48.884;9.126;2023-06-04T00:20:58;16.50;99.90
843;DHT22;407;48.884;9.126;2023-06-04T00:23:23;16.50;99.90
843;DHT22;407;48.884;9.126;2023-06-04T00:25:49;16.50;99.90
843;DHT22;407;48.884;9.126;2023-06-04T00:28:15;16.50;99.90
843;DHT22;407;48.884;9.126;2023-06-04T00:30:40;16.40;99.90
843;DHT22;407;48.884;9.126;2023-06-04T00:33:06;16.30;99.90
843;DHT22;407;48.884;9.126;2023-06-04T00:35:32;16.10;99.90
843;DHT22;407;48.884;9.126;2023-06-04T00:37:57;16.20;99.90
843;DHT22;407;48.884;9.126;2023-06-04T00:40:23;16.10;99.90
843;DHT22;407;48.884;9.126;2023-06-04T00:42:48;16.10;99.90
843;DHT22;407;48.884;9.126;2023-06-04T00:45:15;16.20;99.90
843;DHT22;407;48.884;9.126;2023-06-04T00:47:43;16.20;99.90
843;DHT22;407;48.884;9.126;2023-06-04T00:50:09;16.20;99.90
843;DHT22;407;48.884;9.126;2023-06-04T00:52:35;16.20;99.90
843;DHT22;407;48.884;9.126;2023-06-04T00:55:02;16.20;99.90
843;DHT22;407;48.884;9.126;2023-06-04T00:57:27;16.20;99.90
843;DHT22;407;48.884;9.126;2023-06-04T00:59:53;16.20;99.90
843;DHT22;407;48.884;9.126;2023-06-04T01:02:21;16.20;99.90
843;DHT22;407;48.884;9.126;2023-06-04T01:07:21;16.20;99.90
843;DHT22;407;48.884;9.126;2023-06-04T01:09:47;16.30;99.90
843;DHT22;407;48.884;9.126;2023-06-04T01:12:13;16.20;99.90
843;DHT22;407;48.884;9.126;2023-06-04T01:14:38;16.20;99.90
843;DHT22;407;48.884;9.126;2023-06-04T01:17:19;16.10;99.90
843;DHT22;407;48.884;9.126;2023-06-04T01:25:31;16.00;99.90
843;DHT22;407;48.884;9.126;2023-06-04T01:27:58;16.00;99.90
843;DHT22;407;48.884;9.126;2023-06-04T01:30:26;16.10;99.90
843;DHT22;407;48.884;9.126;2023-06-04T01:32:53;16.10;99.90
843;DHT22;407;48.884;9.126;2023-06-04T01:35:20;16.10;99.90
843;DHT22;407;48.884;9.126;2023-06-04T01:37:46;16.30;99.90
843;DHT22;407;48.884;9.126;2023-06-04T01:40:13;16.30;99.90
843;DHT22;407;48.884;9.126;2023-06-04T01:42:38;16.20;99.90
843;DHT22;407;48.884;9.126;2023-06-04T01:45:07;16.20;99.90
843;DHT22;407;48.884;9.126;2023-06-04T01:47:33;16.20;99.90
843;DHT22;407;48.884;9.126;2023-06-04T01:50:09;16.20;99.90
843;DHT22;407;48.884;9.126;2023-06-04T01:52:39;16.20;99.90
843;DHT22;407;48.884;9.126;2023-06-04T01:55:10;16.10;99.90
843;DHT22;407;48.884;9.126;2023-06-04T01:57:39;15.90;99.90
843;DHT22;407;48.884;9.126;2023-06-04T02:00:06;15.80;99.90
843;DHT22;407;48.884;9.126;2023-06-04T02:02:36;15.70;99.90
843;DHT22;407;48.884;9.126;2023-06-04T02:05:06;15.50;99.90
843;DHT22;407;48.884;9.126;2023-06-04T02:07:35;15.40;99.90
843;DHT22;407;48.884;9.126;2023-06-04T02:10:07;15.20;99.90
843;DHT22;407;48.884;9.126;2023-06-04T02:12:36;15.00;99.90
843;DHT22;407;48.884;9.126;2023-06-04T02:15:02;15.00;99.90
843;DHT22;407;48.884;9.126;2023-06-04T02:17:28;14.90;99.90
843;DHT22;407;48.884;9.126;2023-06-04T02:19:58;14.90;99.90
843;DHT22;407;48.884;9.126;2023-06-04T02:22:25;14.90;99.90
843;DHT22;407;48.884;9.126;2023-06-04T02:24:51;14.80;99.90
843;DHT22;407;48.884;9.126;2023-06-04T02:27:17;14.80;99.90
843;DHT22;407;48.884;9.126;2023-06-04T02:29:43;14.70;99.90
843;DHT22;407;48.884;9.126;2023-06-04T02:32:09;14.70;99.90
843;DHT22;407;48.884;9.126;2023-06-04T02:34:35;14.60;99.90
843;DHT22;407;48.884;9.126;2023-06-04T02:37:03;14.60;99.90
843;DHT22;407;48.884;9.126;2023-06-04T02:39:28;14.60;99.90
843;DHT22;407;48.884;9.126;2023-06-04T02:41:54;14.40;99.90
843;DHT22;407;48.884;9.126;2023-06-04T02:44:20;14.30;99.90
843;DHT22;407;48.884;9.126;2023-06-04T02:46:45;14.30;1.00
843;DHT22;407;48.884;9.126;2023-06-04T02:49:11;14.30;1.00
843;DHT22;407;48.884;9.126;2023-06-04T02:51:39;14.10;1.00
843;DHT22;407;48.884;9.126;2023-06-04T02:54:05;14.10;99.90
843;DHT22;407;48.884;9.126;2023-06-04T02:56:30;14.10;99.90
843;DHT22;407;48.884;9.126;2023-06-04T02:58:56;14.10;99.90
843;DHT22;407;48.884;9.126;2023-06-04T03:01:22;14.20;99.90
843;DHT22;407;48.884;9.126;2023-06-04T03:03:49;14.30;99.90
843;DHT22;407;48.884;9.126;2023-06-04T03:06:16;14.30;99.90
843;DHT22;407;48.884;9.126;2023-06-04T03:08:42;14.30;99.90
843;DHT22;407;48.884;9.126;2023-06-04T03:11:08;14.40;99.90
843;DHT22;407;48.884;9.126;2023-06-04T03:13:35;14.30;99.90
843;DHT22;407;48.884;9.126;2023-06-04T03:16:01;14.30;99.90
843;DHT22;407;48.884;9.126;2023-06-04T03:18:27;14.30;99.90
843;DHT22;407;48.884;9.126;2023-06-04T03:20:54;14.30;99.90
843;DHT22;407;48.884;9.126;2023-06-04T03:23:20;14.40;99.90
843;DHT22;407;48.884;9.126;2023-06-04T03:25:46;14.40;99.90
843;DHT22;407;48.884;9.126;2023-06-04T03:28:12;14.40;99.90
843;DHT22;407;48.884;9.126;2023-06-04T03:30:37;14.40;99.90
843;DHT22;407;48.884;9.126;2023-06-04T03:33:03;14.40;99.90
843;DHT22;407;48.884;9.126;2023-06-04T03:35:29;14.40;99.90
843;DHT22;407;48.884;9.126;2023-06-04T03:37:54;14.40;99.90
843;DHT22;407;48.884;9.126;2023-06-04T03:40:20;14.40;99.90
843;DHT22;407;48.884;9.126;2023-06-04T03:42:46;14.50;99.90
843;DHT22;407;48.884;9.126;2023-06-04T03:45:11;14.50;99.90
843;DHT22;407;48.884;9.126;2023-06-04T03:47:38;14.30;99.90
843;DHT22;407;48.884;9.126;2023-06-04T03:50:04;14.30;99.90
843;DHT22;407;48.884;9.126;2023-06-04T03:52:30;14.40;99.90
843;DHT22;407;48.884;9.126;2023-06-04T03:54:56;14.50;99.90
843;DHT22;407;48.884;9.126;2023-06-04T03:57:22;14.50;99.90
843;DHT22;407;48.884;9.126;2023-06-04T03:59:48;14.40;99.90
843;DHT22;407;48.884;9.126;2023-06-04T04:02:13;14.50;99.90
843;DHT22;407;48.884;9.126;2023-06-04T04:04:39;14.60;99.90
843;DHT22;407;48.884;9.126;2023-06-04T04:07:04;14.50;99.90
843;DHT22;407;48.884;9.126;2023-06-04T04:09:30;14.50;99.90
843;DHT22;407;48.884;9.126;2023-06-04T04:11:55;14.50;99.90
843;DHT22;407;48.884;9.126;2023-06-04T04:14:21;14.70;99.90
843;DHT22;407;48.884;9.126;2023-06-04T04:16:47;14.90;99.90
843;DHT22;407;48.884;9.126;2023-06-04T04:19:12;14.90;99.90
843;DHT22;407;48.884;9.126;2023-06-04T04:21:38;14.90;99.90
843;DHT22;407;48.884;9.126;2023-06-04T04:24:04;14.80;99.90
843;DHT22;407;48.884;9.126;2023-06-04T04:26:29;15.00;99.90
843;DHT22;407;48.884;9.126;2023-06-04T04:28:55;15.10;99.90
843;DHT22;407;48.884;9.126;2023-06-04T04:31:24;15.10;99.90
843;DHT22;407;48.884;9.126;2023-06-04T04:33:49;15.30;99.90
843;DHT22;407;48.884;9.126;2023-06-04T04:36:16;15.40;99.90
843;DHT22;407;48.884;9.126;2023-06-04T04:38:44;15.60;99.90
843;DHT22;407;48.884;9.126;2023-06-04T04:41:10;15.70;99.90
843;DHT22;407;48.884;9.126;2023-06-04T04:43:37;15.90;99.90
843;DHT22;407;48.884;9.126;2023-06-04T04:46:05;16.20;99.90
843;DHT22;407;48.884;9.126;2023-06-04T04:48:31;16.30;99.90
843;DHT22;407;48.884;9.126;2023-06-04T04:50:57;16.10;99.90
843;DHT22;407;48.884;9.126;2023-06-04T04:53:23;15.90;99.90
843;DHT22;407;48.884;9.126;2023-06-04T04:55:48;15.80;99.90
843;DHT22;407;48.884;9.126;2023-06-04T04:58:14;15.80;99.90
843;DHT22;407;48.884;9.126;2023-06-04T05:00:41;15.80;99.90
843;DHT22;407;48.884;9.126;2023-06-04T05:03:06;16.00;99.90
843;DHT22;407;48.884;9.126;2023-06-04T05:05:33;16.10;99.90
843;DHT22;407;48.884;9.126;2023-06-04T05:07:59;16.00;99.90
843;DHT22;407;48.884;9.126;2023-06-04T05:10:25;16.10;99.90
843;DHT22;407;48.884;9.126;2023-06-04T05:12:56;16.50;99.90
843;DHT22;407;48.884;9.126;2023-06-04T05:15:21;17.40;99.90
843;DHT22;407;48.884;9.126;2023-06-04T05:17:48;18.50;99.90
843;DHT22;407;48.884;9.126;2023-06-04T05:20:13;19.50;99.90
843;DHT22;407;48.884;9.126;2023-06-04T05:22:40;20.40;99.90
843;DHT22;407;48.884;9.126;2023-06-04T05:25:06;20.80;99.90
843;DHT22;407;48.884;9.126;2023-06-04T05:27:32;21.90;99.90
843;DHT22;407;48.884;9.126;2023-06-04T05:29:58;22.30;99.90
843;DHT22;407;48.884;9.126;2023-06-04T05:32:24;22.90;99.90
843;DHT22;407;48.884;9.126;2023-06-04T05:34:56;23.00;99.90
843;DHT22;407;48.884;9.126;2023-06-04T05:37:23;22.80;99.90
843;DHT22;407;48.884;9.126;2023-06-04T05:39:49;23.10;99.90
843;DHT22;407;48.884;9.126;2023-06-04T05:42:15;23.40;99.90
843;DHT22;407;48.884;9.126;2023-06-04T05:44:41;23.30;99.90
843;DHT22;407;48.884;9.126;2023-06-04T05:47:06;23.50;99.90
843;DHT22;407;48.884;9.126;2023-06-04T05:49:34;23.80;99.90
843;DHT22;407;48.884;9.126;2023-06-04T05:52:00;24.40;1.00
843;DHT22;407;48.884;9.126;2023-06-04T05:54:26;24.80;99.90
843;DHT22;407;48.884;9.126;2023-06-04T05:56:51;25.40;1.00
843;DHT22;407;48.884;9.126;2023-06-04T05:59:17;25.30;99.90
843;DHT22;407;48.884;9.126;2023-06-04T06:01:42;25.20;99.90
843;DHT22;407;48.884;9.126;2023-06-04T06:04:08;25.10;99.90
843;DHT22;407;48.884;9.126;2023-06-04T06:06:35;25.30;99.90
843;DHT22;407;48.884;9.126;2023-06-04T07:05:05;31.20;99.90
843;DHT22;407;48.884;9.126;2023-06-04T07:07:31;31.00;99.90
843;DHT22;407;48.884;9.126;2023-06-04T07:09:56;31.30;99.90
843;DHT22;407;48.884;9.126;2023-06-04T07:12:22;31.20;99.90
843;DHT22;407;48.884;9.126;2023-06-04T07:14:48;30.80;99.90
843;DHT22;407;48.884;9.126;2023-06-04T07:17:14;31.80;99.90
843;DHT22;407;48.884;9.126;2023-06-04T07:19:39;32.20;99.90
843;DHT22;407;48.884;9.126;2023-06-04T07:22:05;32.10;99.90
843;DHT22;407;48.884;9.126;2023-06-04T07:24:32;31.50;99.90
843;DHT22;407;48.884;9.126;2023-06-04T07:26:59;30.40;99.90
843;DHT22;407;48.884;9.126;2023-06-04T07:29:25;29.20;99.90
843;DHT22;407;48.884;9.126;2023-06-04T07:31:50;27.80;99.90
843;DHT22;407;48.884;9.126;2023-06-04T07:34:16;26.50;99.90
843;DHT22;407;48.884;9.126;2023-06-04T07:36:41;26.30;99.90
843;DHT22;407;48.884;9.126;2023-06-04T07:39:07;26.30;99.90
843;DHT22;407;48.884;9.126;2023-06-04T07:41:32;26.80;99.90
843;DHT22;407;48.884;9.126;2023-06-04T07:43:58;26.80;99.90
843;DHT22;407;48.884;9.126;2023-06-04T07:46:23;27.10;99.90
843;DHT22;407;48.884;9.126;2023-06-04T07:48:49;26.50;99.90
843;DHT22;407;48.884;9.126;2023-06-04T07:51:14;26.80;99.90
843;DHT22;407;48.884;9.126;2023-06-04T07:53:41;26.30;99.90
843;DHT22;407;48.884;9.126;2023-06-04T07:56:07;26.80;99.90
843;DHT22;407;48.884;9.126;2023-06-04T07:58:33;27.60;99.90
843;DHT22;407;48.884;9.126;2023-06-04T08:00:59;28.80;99.90
843;DHT22;407;48.884;9.126;2023-06-04T08:03:25;29.90;99.90
843;DHT22;407;48.884;9.126;2023-06-04T08:05:51;29.60;99.90
843;DHT22;407;48.884;9.126;2023-06-04T08:08:16;29.10;99.90
843;DHT22;407;48.884;9.126;2023-06-04T08:10:42;28.40;99.90
843;DHT22;407;48.884;9.126;2023-06-04T08:13:08;28.20;99.90
843;DHT22;407;48.884;9.126;2023-06-04T08:15:35;28.10;99.90
843;DHT22;407;48.884;9.126;2023-06-04T08:18:02;27.80;99.90
843;DHT22;407;48.884;9.126;2023-06-04T08:20:27;27.80;99.90
843;DHT22;407;48.884;9.126;2023-06-04T08:22:53;28.50;99.90
843;DHT22;407;48.884;9.126;2023-06-04T08:25:18;29.40;99.90
843;DHT22;407;48.884;9.126;2023-06-04T08:27:44;29.30;99.90
843;DHT22;407;48.884;9.126;2023-06-04T08:30:10;28.50;99.90
843;DHT22;407;48.884;9.126;2023-06-04T08:32:35;27.50;99.90
843;DHT22;407;48.884;9.126;2023-06-04T08:35:01;27.60;99.90
843;DHT22;407;48.884;9.126;2023-06-04T08:37:26;28.40;99.90
843;DHT22;407;48.884;9.126;2023-06-04T08:39:52;28.40;99.90
843;DHT22;407;48.884;9.126;2023-06-04T08:42:31;28.60;99.90
843;DHT22;407;48.884;9.126;2023-06-04T08:45:00;29.60;99.90
843;DHT22;407;48.884;9.126;2023-06-04T08:47:28;30.60;99.90
843;DHT22;407;48.884;9.126;2023-06-04T08:49:58;30.60;99.90
843;DHT22;407;48.884;9.126;2023-06-04T08:52:25;30.50;99.90
843;DHT22;407;48.884;9.126;2023-06-04T08:54:51;31.00;99.90
843;DHT22;407;48.884;9.126;2023-06-04T08:57:18;31.40;99.90
843;DHT22;407;48.884;9.126;2023-06-04T08:59:48;32.10;99.90
843;DHT22;407;48.884;9.126;2023-06-04T09:02:17;32.80;99.90
843;DHT22;407;48.884;9.126;2023-06-04T09:04:44;32.50;99.90
843;DHT22;407;48.884;9.126;2023-06-04T09:07:13;32.40;99.90
843;DHT22;407;48.884;9.126;2023-06-04T09:09:40;32.40;99.90
843;DHT22;407;48.884;9.126;2023-06-04T09:12:12;33.00;99.90
843;DHT22;407;48.884;9.126;2023-06-04T09:14:39;32.90;99.90
843;DHT22;407;48.884;9.126;2023-06-04T09:17:08;32.60;99.90
843;DHT22;407;48.884;9.126;2023-06-04T09:19:33;33.90;99.90
843;DHT22;407;48.884;9.126;2023-06-04T09:22:00;34.60;99.90
843;DHT22;407;48.884;9.126;2023-06-04T09:24:43;34.40;99.90
843;DHT22;407;48.884;9.126;2023-06-04T09:27:13;34.50;99.90
843;DHT22;407;48.884;9.126;2023-06-04T09:29:48;33.20;99.90
843;DHT22;407;48.884;9.126;2023-06-04T09:32:13;33.90;99.90
843;DHT22;407;48.884;9.126;2023-06-04T09:34:40;34.10;99.90
843;DHT22;407;48.884;9.126;2023-06-04T09:37:14;33.60;99.90
843;DHT22;407;48.884;9.126;2023-06-04T09:39:41;32.30;99.90
843;DHT22;407;48.884;9.126;2023-06-04T09:42:07;32.20;99.90
843;DHT22;407;48.884;9.126;2023-06-04T09:44:43;32.80;99.90
843;DHT22;407;48.884;9.126;2023-06-04T09:47:10;33.60;99.90
843;DHT22;407;48.884;9.126;2023-06-04T09:49:49;33.80;99.90
843;DHT22;407;48.884;9.126;2023-06-04T09:52:18;34.20;99.90
843;DHT22;407;48.884;9.126;2023-06-04T09:54:45;33.80;99.90
843;DHT22;407;48.884;9.126;2023-06-04T09:57:18;34.10;99.90
843;DHT22;407;48.884;9.126;2023-06-04T09:59:45;34.30;99.90
843;DHT22;407;48.884;9.126;2023-06-04T10:02:12;34.70;99.90
843;DHT22;407;48.884;9.126;2023-06-04T10:04:41;34.40;99.90
843;DHT22;407;48.884;9.126;2023-06-04T10:07:13;33.10;99.90
843;DHT22;407;48.884;9.126;2023-06-04T10:09:43;33.30;99.90
843;DHT22;407;48.884;9.126;2023-06-04T10:12:16;32.80;99.90
843;DHT22;407;48.884;9.126;2023-06-04T10:14:51;33.60;99.90
843;DHT22;407;48.884;9.126;2023-06-04T10:17:22;33.10;99.90
843;DHT22;407;48.884;9.126;2023-06-04T10:19:49;32.70;99.90
843;DHT22;407;48.884;9.126;2023-06-04T10:22:17;32.20;99.90
843;DHT22;407;48.884;9.126;2023-06-04T10:24:43;32.60;99.90
843;DHT22;407;48.884;9.126;2023-06-04T10:27:11;33.50;99.90
843;DHT22;407;48.884;9.126;2023-06-04T10:29:38;33.10;99.90
843;DHT22;407;48.884;9.126;2023-06-04T10:32:04;32.50;99.90
843;DHT22;407;48.884;9.126;2023-06-04T10:34:31;31.80;99.90
843;DHT22;407;48.884;9.126;2023-06-04T10:36:56;31.40;99.90
843;DHT22;407;48.884;9.126;2023-06-04T10:39:26;31.00;99.90
843;DHT22;407;48.884;9.126;2023-06-04T10:42:03;30.30;99.90
843;DHT22;407;48.884;9.126;2023-06-04T10:44:44;29.40;99.90
843;DHT22;407;48.884;9.126;2023-06-04T10:47:23;29.50;99.90
843;DHT22;407;48.884;9.126;2023-06-04T10:49:50;29.70;99.90
843;DHT22;407;48.884;9.126;2023-06-04T10:52:17;29.40;99.90
843;DHT22;407;48.884;9.126;2023-06-04T10:54:44;29.20;99.90
843;DHT22;407;48.884;9.126;2023-06-04T10:57:11;28.70;99.90
843;DHT22;407;48.884;9.126;2023-06-04T10:59:37;28.70;99.90
843;DHT22;407;48.884;9.126;2023-06-04T11:02:07;29.10;99.90
843;DHT22;407;48.884;9.126;2023-06-04T11:04:34;29.30;99.90
843;DHT22;407;48.884;9.126;2023-06-04T11:07:04;29.50;99.90
843;DHT22;407;48.884;9.126;2023-06-04T11:09:34;29.60;99.90
843;DHT22;407;48.884;9.126;2023-06-04T11:12:01;29.30;99.90
843;DHT22;407;48.884;9.126;2023-06-04T11:14:28;29.20;99.90
843;DHT22;407;48.884;9.126;2023-06-04T11:16:53;29.00;99.90
843;DHT22;407;48.884;9.126;2023-06-04T11:19:19;29.40;99.90
843;DHT22;407;48.884;9.126;2023-06-04T11:21:47;29.10;99.90
843;DHT22;407;48.884;9.126;2023-06-04T11:24:12;29.00;99.90
843;DHT22;407;48.884;9.126;2023-06-04T11:26:38;29.10;99.90
843;DHT22;407;48.884;9.126;2023-06-04T11:29:09;29.20;99.90
843;DHT22;407;48.884;9.126;2023-06-04T11:31:45;29.30;99.90
843;DHT22;407;48.884;9.126;2023-06-04T11:34:11;29.20;99.90
843;DHT22;407;48.884;9.126;2023-06-04T11:36:47;29.40;99.90
843;DHT22;407;48.884;9.126;2023-06-04T11:39:15;29.60;99.90
843;DHT22;407;48.884;9.126;2023-06-04T11:41:41;29.40;99.90
843;DHT22;407;48.884;9.126;2023-06-04T11:44:07;29.10;99.90
843;DHT22;407;48.884;9.126;2023-06-04T11:46:35;29.30;99.90
843;DHT22;407;48.884;9.126;2023-06-04T11:49:02;29.50;99.90
843;DHT22;407;48.884;9.126;2023-06-04T11:51:33;29.50;99.90
843;DHT22;407;48.884;9.126;2023-06-04T11:54:01;29.10;99.90
843;DHT22;407;48.884;9.126;2023-06-04T11:56:27;29.10;99.90
843;DHT22;407;48.884;9.126;2023-06-04T11:58:54;29.40;99.90
843;DHT22;407;48.884;9.126;2023-06-04T12:01:21;29.10;99.90
843;DHT22;407;48.884;9.126;2023-06-04T12:03:46;29.00;99.90
843;DHT22;407;48.884;9.126;2023-06-04T12:06:17;28.70;99.90
843;DHT22;407;48.884;9.126;2023-06-04T12:08:53;28.90;99.90
843;DHT22;407;48.884;9.126;2023-06-04T12:11:34;28.90;99.90
843;DHT22;407;48.884;9.126;2023-06-04T12:14:04;28.60;99.90
843;DHT22;407;48.884;9.126;2023-06-04T12:16:30;28.00;99.90
843;DHT22;407;48.884;9.126;2023-06-04T12:19:10;28.40;99.90
843;DHT22;407;48.884;9.126;2023-06-04T12:21:36;28.90;99.90
843;DHT22;407;48.884;9.126;2023-06-04T12:24:11;29.10;99.90
843;DHT22;407;48.884;9.126;2023-06-04T12:26:39;29.20;99.90
843;DHT22;407;48.884;9.126;2023-06-04T12:29:17;29.10;99.90
843;DHT22;407;48.884;9.126;2023-06-04T12:31:45;29.10;99.90
843;DHT22;407;48.884;9.126;2023-06-04T12:34:14;28.90;99.90
843;DHT22;407;48.884;9.126;2023-06-04T12:36:40;29.00;99.90
843;DHT22;407;48.884;9.126;2023-06-04T12:39:06;29.40;99.90
843;DHT22;407;48.884;9.126;2023-06-04T12:41:34;29.50;99.90
843;DHT22;407;48.884;9.126;2023-06-04T12:44:00;29.10;99.90
843;DHT22;407;48.884;9.126;2023-06-04T12:46:28;28.80;99.90
843;DHT22;407;48.884;9.126;2023-06-04T12:48:54;28.60;99.90
843;DHT22;407;48.884;9.126;2023-06-04T12:51:20;28.70;99.90
843;DHT22;407;48.884;9.126;2023-06-04T12:53:47;28.80;99.90
843;DHT22;407;48.884;9.126;2023-06-04T12:56:12;28.20;99.90
843;DHT22;407;48.884;9.126;2023-06-04T12:58:38;28.00;99.90
843;DHT22;407;48.884;9.126;2023-06-04T13:01:04;28.10;99.90
843;DHT22;407;48.884;9.126;2023-06-04T13:03:30;28.30;99.90
843;DHT22;407;48.884;9.126;2023-06-04T13:05:56;28.60;99.90
843;DHT22;407;48.884;9.126;2023-06-04T13:08:22;29.00;99.90
843;DHT22;407;48.884;9.126;2023-06-04T13:10:48;28.80;99.90
843;DHT22;407;48.884;9.126;2023-06-04T13:13:14;28.50;99.90
843;DHT22;407;48.884;9.126;2023-06-04T13:15:43;28.60;99.90
843;DHT22;407;48.884;9.126;2023-06-04T13:18:10;28.50;99.90
843;DHT22;407;48.884;9.126;2023-06-04T13:20:37;28.50;99.90
843;DHT22;407;48.884;9.126;2023-06-04T13:23:03;28.40;99.90
843;DHT22;407;48.884;9.126;2023-06-04T13:25:28;28.50;99.90
843;DHT22;407;48.884;9.126;2023-06-04T13:27:56;28.30;99.90
843;DHT22;407;48.884;9.126;2023-06-04T13:30:21;28.20;99.90
843;DHT22;407;48.884;9.126;2023-06-04T13:32:48;28.00;99.90
843;DHT22;407;48.884;9.126;2023-06-04T13:35:13;28.10;99.90
843;DHT22;407;48.884;9.126;2023-06-04T13:37:40;28.20;99.90
843;DHT22;407;48.884;9.126;2023-06-04T13:40:06;28.10;99.90
843;DHT22;407;48.884;9.126;2023-06-04T13:42:32;28.00;99.90
843;DHT22;407;48.884;9.126;2023-06-04T13:44:58;28.30;99.90
843;DHT22;407;48.884;9.126;2023-06-04T13:47:24;28.30;99.90
843;DHT22;407;48.884;9.126;2023-06-04T13:49:50;28.10;99.90
843;DHT22;407;48.884;9.126;2023-06-04T13:52:16;27.90;99.90
843;DHT22;407;48.884;9.126;2023-06-04T13:54:42;27.70;99.90
843;DHT22;407;48.884;9.126;2023-06-04T13:57:08;27.70;99.90
843;DHT22;407;48.884;9.126;2023-06-04T13:59:37;27.90;99.90
843;DHT22;407;48.884;9.126;2023-06-04T14:02:02;28.00;99.90
843;DHT22;407;48.884;9.126;2023-06-04T14:04:28;28.20;99.90
843;DHT22;407;48.884;9.126;2023-06-04T14:06:54;28.40;99.90
843;DHT22;407;48.884;9.126;2023-06-04T14:09:19;28.20;99.90
843;DHT22;407;48.884;9.126;2023-06-04T14:11:45;27.80;99.90
843;DHT22;407;48.884;9.126;2023-06-04T14:14:18;27.70;99.90
843;DHT22;407;48.884;9.126;2023-06-04T14:16:45;27.80;99.90
843;DHT22;407;48.884;9.126;2023-06-04T14:19:11;27.90;99.90
843;DHT22;407;48.884;9.126;2023-06-04T14:21:36;27.90;99.90
843;DHT22;407;48.884;9.126;2023-06-04T14:24:02;28.10;99.90
843;DHT22;407;48.884;9.126;2023-06-04T14:26:29;28.20;99.90
843;DHT22;407;48.884;9.126;2023-06-04T14:28:55;28.10;99.90
843;DHT22;407;48.884;9.126;2023-06-04T14:31:20;28.40;99.90
843;DHT22;407;48.884;9.126;2023-06-04T14:33:46;28.50;99.90
843;DHT22;407;48.884;9.126;2023-06-04T14:36:12;28.20;99.90
843;DHT22;407;48.884;9.126;2023-06-04T14:38:39;27.80;99.90
843;DHT22;407;48.884;9.126;2023-06-04T14:41:05;27.70;99.90
843;DHT22;407;48.884;9.126;2023-06-04T14:43:30;27.60;99.90
843;DHT22;407;48.884;9.126;2023-06-04T14:45:56;27.80;99.90
843;DHT22;407;48.884;9.126;2023-06-04T14:48:21;27.60;99.90
843;DHT22;407;48.884;9.126;2023-06-04T14:50:47;27.10;99.90
843;DHT22;407;48.884;9.126;2023-06-04T14:53:13;27.30;99.90
843;DHT22;407;48.884;9.126;2023-06-04T14:55:39;27.40;99.90
843;DHT22;407;48.884;9.126;2023-06-04T14:58:04;27.20;99.90
843;DHT22;407;48.884;9.126;2023-06-04T15:00:31;27.10;99.90
843;DHT22;407;48.884;9.126;2023-06-04T15:02:57;27.50;99.90
843;DHT22;407;48.884;9.126;2023-06-04T15:05:23;27.60;99.90
843;DHT22;407;48.884;9.126;2023-06-04T15:07:48;27.70;99.90
843;DHT22;407;48.884;9.126;2023-06-04T15:10:14;27.80;99.90
843;DHT22;407;48.884;9.126;2023-06-04T15:12:40;27.80;99.90
843;DHT22;407;48.884;9.126;2023-06-04T15:15:06;27.90;99.90
843;DHT22;407;48.884;9.126;2023-06-04T15:17:36;27.90;99.90
843;DHT22;407;48.884;9.126;2023-06-04T15:20:06;27.70;99.90
843;DHT22;407;48.884;9.126;2023-06-04T15:22:32;27.40;99.90
843;DHT22;407;48.884;9.126;2023-06-04T15:24:59;27.30;99.90
843;DHT22;407;48.884;9.126;2023-06-04T15:27:25;27.40;99.90
843;DHT22;407;48.884;9.126;2023-06-04T15:29:51;27.40;99.90
843;DHT22;407;48.884;9.126;2023-06-04T15:32:17;27.50;99.90
843;DHT22;407;48.884;9.126;2023-06-04T15:34:43;27.40;99.90
843;DHT22;407;48.884;9.126;2023-06-04T15:37:09;27.20;99.90
843;DHT22;407;48.884;9.126;2023-06-04T15:39:34;26.90;99.90
843;DHT22;407;48.884;9.126;2023-06-04T15:42:00;26.80;99.90
843;DHT22;407;48.884;9.126;2023-06-04T15:44:25;26.80;99.90
843;DHT22;407;48.884;9.126;2023-06-04T15:46:52;27.00;99.90
843;DHT22;407;48.884;9.126;2023-06-04T15:49:18;27.00;99.90
843;DHT22;407;48.884;9.126;2023-06-04T15:51:44;27.10;99.90
843;DHT22;407;48.884;9.126;2023-06-04T15:54:09;27.20;99.90
843;DHT22;407;48.884;9.126;2023-06-04T15:56:35;27.30;99.90
843;DHT22;407;48.884;9.126;2023-06-04T15:59:02;27.20;99.90
843;DHT22;407;48.884;9.126;2023-06-04T16:01:29;27.00;99.90
843;DHT22;407;48.884;9.126;2023-06-04T16:03:54;26.80;99.90
843;DHT22;407;48.884;9.126;2023-06-04T16:06:20;26.80;99.90
843;DHT22;407;48.884;9.126;2023-06-04T16:08:48;26.70;99.90
843;DHT22;407;48.884;9.126;2023-06-04T16:11:14;26.60;99.90
843;DHT22;407;48.884;9.126;2023-06-04T16:13:40;26.50;99.90
843;DHT22;407;48.884;9.126;2023-06-04T16:16:06;26.50;99.90
843;DHT22;407;48.884;9.126;2023-06-04T16:18:32;26.60;99.90
843;DHT22;407;48.884;9.126;2023-06-04T16:20:57;26.70;99.90
843;DHT22;407;48.884;9.126;2023-06-04T16:23:23;26.50;99.90
843;DHT22;407;48.884;9.126;2023-06-04T16:25:49;26.50;99.90
843;DHT22;407;48.884;9.126;2023-06-04T16:28:15;26.60;99.90
843;DHT22;407;48.884;9.126;2023-06-04T16:30:40;26.50;99.90
843;DHT22;407;48.884;9.126;2023-06-04T16:33:06;26.40;99.90
843;DHT22;407;48.884;9.126;2023-06-04T16:35:32;26.30;99.90
843;DHT22;407;48.884;9.126;2023-06-04T16:37:59;26.30;99.90
843;DHT22;407;48.884;9.126;2023-06-04T16:40:24;26.30;99.90
843;DHT22;407;48.884;9.126;2023-06-04T16:42:50;26.30;99.90
843;DHT22;407;48.884;9.126;2023-06-04T16:45:16;26.30;99.90
843;DHT22;407;48.884;9.126;2023-06-04T16:47:42;26.10;99.90
843;DHT22;407;48.884;9.126;2023-06-04T16:50:09;26.10;99.90
843;DHT22;407;48.884;9.126;2023-06-04T16:52:35;26.00;99.90
843;DHT22;407;48.884;9.126;2023-06-04T16:55:01;25.90;99.90
843;DHT22;407;48.884;9.126;2023-06-04T16:57:27;25.90;99.90
843;DHT22;407;48.884;9.126;2023-06-04T16:59:53;25.90;99.90
843;DHT22;407;48.884;9.126;2023-06-04T17:02:19;25.80;99.90
843;DHT22;407;48.884;9.126;2023-06-04T17:04:45;25.90;99.90
843;DHT22;407;48.884;9.126;2023-06-04T17:07:11;25.90;99.90
843;DHT22;407;48.884;9.126;2023-06-04T17:09:37;26.00;99.90
843;DHT22;407;48.884;9.126;2023-06-04T17:12:03;25.80;99.90
843;DHT22;407;48.884;9.126;2023-06-04T17:14:28;25.80;99.90
843;DHT22;407;48.884;9.126;2023-06-04T17:16:56;26.00;99.90
843;DHT22;407;48.884;9.126;2023-06-04T17:19:21;26.00;99.90
843;DHT22;407;48.884;9.126;2023-06-04T17:21:50;25.90;99.90
843;DHT22;407;48.884;9.126;2023-06-04T17:24:15;25.70;99.90
843;DHT22;407;48.884;9.126;2023-06-04T17:26:42;25.60;99.90
843;DHT22;407;48.884;9.126;2023-06-04T17:29:08;25.60;99.90
843;DHT22;407;48.884;9.126;2023-06-04T17:31:33;25.60;99.90
843;DHT22;407;48.884;9.126;2023-06-04T17:33:59;25.40;99.90
843;DHT22;407;48.884;9.126;2023-06-04T17:36:25;25.30;99.90